메인 페이지
METAR-TAF:

METAR-TAF

공항 :

킹 압둘아지즈 국제공항

지다, 사우디아라비아

위도: 21-42N, 경도: 039-11E, 고도: 15m

현재 날씨관측

예보는 10분 전, 16:00시(UTC)에 발표되었습니다.
북서10kt
온도 26°C
습도 58%
기압 1015 hPa
시정 10km 이상
1500m 미만 상공 구름 및 적란운 없음

METAR: OEJN 181600Z 32010KT CAVOK 26/17 Q1015 NOSIG

시각: 19:10 (16:10 UTC)

예보

예보는 5 시간 10분 전, 11:00시(UTC)에 발표되었습니다.
예보 대상 시간: 18일 12시부터 19일 18시까지 (UTC)
북북서16kt
시정 10km 이상
고도 4000ft 상공 구름 조금
전환 중
18일 18시부터 18일 20시까지 (UTC)
11kt

TAF: OEJN 181100Z 1812/1918 33016KT 9999 FEW040 BECMG 1818/1820 01011KT

4,000개 이상의 공항 관측 자료 및 예보 (METAR 및 TAF 보고).

지도상에서 검색 가능한 기상관측소가 노란 점과 빨간 점으로 표시되어 있습니다.

기상관측소 명을 보려면 표시 위로 마우스를 이동하세요.

날씨 관측과 예보를 보려면 클릭하세요.

지도 변경 : 확대하려면 엑스 표시가 있는 녹색 버튼, 축소하려면 빼기 표시가 있는 녹색 버튼, 다음 페이지의 지도를 보려면 녹색 화살표를 클릭하세요.


METAR-TAF: